Time;durP1;ratioP1;P1;durP2;ratioP2;P2;SDS_P1;SDS_P2;PMS_P1;PMS_P2;Temp;Humidity;BMP_temperature;BMP_pressure;BME280_temperature;BME280_humidity;BME280_pressure;Samples;Min_cycle;Max_cycle;Signal;HPM_P1;HPM_P2
2023/03/13 00:00:15;;;;;;;33.03;8.05;;;;;;;-146.25;100.00;52502.03;2097974;28;34442;-76
2023/03/13 00:01:24;;;;;;;34.92;8.45;;;;;;;-146.25;100.00;52510.13;2096306;28;36562;-76
2023/03/13 00:02:27;;;;;;;35.13;8.95;;;;;;;-146.25;100.00;52510.13;2097575;28;20045;-76
2023/03/13 00:03:29;;;;;;;37.95;8.60;;;;;;;-146.25;100.00;52504.03;2096538;28;38814;-76
2023/03/13 00:04:31;;;;;;;36.78;8.63;;;;;;;-146.25;100.00;52437.13;2096937;28;33299;-76
2023/03/13 00:05:35;;;;;;;40.13;8.18;;;;;;;-146.25;100.00;52491.88;2097554;28;20322;-76
2023/03/13 00:06:38;;;;;;;35.58;8.55;;;;;;;-146.25;100.00;52514.19;2096939;28;37884;-76
2023/03/13 00:07:40;;;;;;;36.58;8.13;;;;;;;-146.25;100.00;52491.88;2097298;28;33582;-76
2023/03/13 00:08:44;;;;;;;40.70;8.60;;;;;;;-146.25;100.00;52479.72;2097441;28;33508;-75
2023/03/13 00:09:46;;;;;;;30.08;8.55;;;;;;;-146.25;100.00;52491.88;2097366;28;34041;-75
2023/03/13 00:10:47;;;;;;;35.22;8.43;;;;;;;-146.25;100.00;52491.88;2097971;28;20851;-76
2023/03/13 00:11:49;;;;;;;44.55;9.10;;;;;;;-146.25;100.00;52514.19;2088808;28;20654;-75
2023/03/13 00:12:51;;;;;;;44.33;8.00;;;;;;;-146.25;100.00;52475.66;2088643;28;32895;-76
2023/03/13 00:13:58;;;;;;;42.75;8.95;;;;;;;-146.25;100.00;52510.13;2097009;28;38452;-75
2023/03/13 00:15:00;;;;;;;35.35;7.70;;;;;;;-146.25;100.00;52461.47;2096804;28;34608;-75
2023/03/13 00:16:14;;;;;;;38.47;8.00;;;;;;;-146.25;100.00;52497.97;2096444;28;35865;-76
2023/03/13 00:17:18;;;;;;;36.90;8.38;;;;;;;-146.25;100.00;52471.59;2098075;28;20163;-75
2023/03/13 00:18:20;;;;;;;35.83;8.57;;;;;;;-146.25;100.00;52497.97;2097286;28;35056;-75
2023/03/13 00:19:22;;;;;;;42.92;8.60;;;;;;;-146.25;100.00;52483.78;2096983;28;33810;-75
2023/03/13 00:20:24;;;;;;;42.90;8.77;;;;;;;-146.25;100.00;52502.03;2096956;28;38641;-70
2023/03/13 00:21:30;;;;;;;40.70;8.40;;;;;;;-146.25;100.00;52489.84;2097106;28;34341;-69
2023/03/13 00:22:32;;;;;;;34.50;7.80;;;;;;;-146.25;100.00;52479.72;2097098;28;34722;-69
2023/03/13 00:23:36;;;;;;;37.65;7.78;;;;;;;-146.25;100.00;52508.09;2097605;28;36016;-69
2023/03/13 00:24:38;;;;;;;37.05;8.35;;;;;;;-146.25;100.00;52475.66;2097948;28;20049;-69
2023/03/13 00:25:42;;;;;;;32.10;8.23;;;;;;;-146.25;100.00;52473.63;2096999;28;35736;-72
2023/03/13 00:26:44;;;;;;;41.60;7.70;;;;;;;-146.25;100.00;52487.81;2097480;28;31827;-74
2023/03/13 00:27:46;;;;;;;41.55;8.07;;;;;;;-146.25;100.00;52465.53;2088343;28;25255;-74
2023/03/13 00:28:49;;;;;;;45.70;7.90;;;;;;;-146.25;100.00;52497.97;2088992;28;20888;-74
2023/03/13 00:29:51;;;;;;;43.75;8.30;;;;;;;-146.25;100.00;52520.28;2097879;28;20679;-74
2023/03/13 00:31:14;;;;;;;33.83;7.72;;;;;;;-146.25;100.00;52500.00;2096997;28;32830;-74
2023/03/13 00:32:16;;;;;;;37.20;7.13;;;;;;;-146.25;100.00;52461.47;2087992;28;30751;-74
2023/03/13 00:33:18;;;;;;;42.42;8.13;;;;;;;-146.25;100.00;52461.47;2088692;28;28486;-74
2023/03/13 00:34:21;;;;;;;36.13;7.50;;;;;;;-146.25;100.00;52489.84;2096671;28;20183;-73
2023/03/13 00:35:23;;;;;;;40.83;7.55;;;;;;;-146.25;100.00;52475.66;2096298;28;33601;-74
2023/03/13 00:36:29;;;;;;;33.45;7.57;;;;;;;-146.25;100.00;52495.94;2097747;28;20037;-74
2023/03/13 00:37:31;;;;;;;39.72;7.25;;;;;;;-146.25;100.00;52502.03;2097397;28;28612;-74
2023/03/13 00:38:33;;;;;;;32.03;6.70;;;;;;;-146.25;100.00;52475.66;2097381;28;20045;-74
2023/03/13 00:39:35;;;;;;;40.83;7.53;;;;;;;-146.25;100.00;52485.81;2097085;28;20045;-74
2023/03/13 00:40:37;;;;;;;35.15;7.18;;;;;;;-146.25;100.00;52459.44;2096414;28;28185;-74
2023/03/13 00:41:39;;;;;;;38.65;7.55;;;;;;;-146.25;100.00;52491.88;2096714;28;28030;-74
2023/03/13 00:42:41;;;;;;;39.58;6.07;;;;;;;-146.25;100.00;52463.50;2096727;28;29407;-74
2023/03/13 00:43:44;;;;;;;38.88;6.35;;;;;;;-146.25;100.00;52500.00;2096470;28;30085;-74
2023/03/13 00:44:46;;;;;;;43.90;6.95;;;;;;;-146.25;100.00;52510.13;2080268;28;20839;-74
2023/03/13 00:45:51;;;;;;;44.00;7.30;;;;;;;-146.25;100.00;52546.63;2079965;28;29702;-74
2023/03/13 00:46:53;;;;;;;34.65;6.07;;;;;;;-146.25;100.00;52508.09;2089306;28;20875;-73
2023/03/13 00:47:55;;;;;;;40.05;7.20;;;;;;;-146.25;100.00;52477.69;2097530;28;27752;-73
2023/03/13 00:48:57;;;;;;;32.70;6.15;;;;;;;-146.25;100.00;52483.78;2097133;28;27411;-74
2023/03/13 00:49:58;;;;;;;46.72;7.45;;;;;;;-146.25;100.00;52445.25;2096852;28;32626;-73
2023/03/13 00:51:01;;;;;;;29.67;6.28;;;;;;;-146.25;100.00;52489.84;2097272;28;27263;-73
2023/03/13 00:52:06;;;;;;;41.40;6.93;;;;;;;-146.25;100.00;52477.69;2097176;28;31232;-72
2023/03/13 00:53:08;;;;;;;35.72;6.70;;;;;;;-146.25;100.00;52481.75;2097265;28;20111;-73
2023/03/13 00:54:10;;;;;;;39.80;6.60;;;;;;;-146.25;100.00;52473.63;2097816;28;20138;-73
2023/03/13 00:55:12;;;;;;;31.70;5.65;;;;;;;-146.25;100.00;52522.28;2097380;28;20175;-73
2023/03/13 00:56:17;;;;;;;37.20;6.65;;;;;;;-146.25;100.00;52481.75;2088763;28;20045;-73
2023/03/13 00:57:21;;;;;;;32.78;5.80;;;;;;;-146.25;100.00;52524.31;2088345;28;20041;-73
2023/03/13 00:58:25;;;;;;;35.47;6.28;;;;;;;-146.25;100.00;52514.19;2089927;28;20042;-73
2023/03/13 00:59:27;;;;;;;35.10;5.40;;;;;;;-146.25;100.00;52502.03;2088353;28;20414;-74
2023/03/13 01:00:29;;;;;;;37.92;6.20;;;;;;;-146.25;100.00;52510.13;2088384;28;34312;-73
2023/03/13 01:01:36;;;;;;;37.63;5.50;;;;;;;-146.25;100.00;52485.81;2096777;28;20974;-73
2023/03/13 01:02:42;;;;;;;30.33;5.95;;;;;;;-146.25;100.00;52489.84;2088375;28;22975;-73
2023/03/13 01:03:53;;;;;;;42.53;6.28;;;;;;;-146.25;100.00;52520.28;2080971;28;20910;-74
2023/03/13 01:04:56;;;;;;;36.63;5.72;;;;;;;-146.25;100.00;52479.72;2090493;28;20136;-74
2023/03/13 01:06:06;;;;;;;33.88;5.82;;;;;;;-146.25;100.00;52495.94;2096159;28;32312;-74
2023/03/13 01:07:07;;;;;;;34.88;5.30;;;;;;;-146.25;100.00;52479.72;2088339;28;29111;-73
2023/03/13 01:08:09;;;;;;;30.58;5.45;;;;;;;-146.25;100.00;52489.84;2089592;28;27441;-73
2023/03/13 01:09:14;;;;;;;35.03;5.18;;;;;;;-146.25;100.00;52453.34;2087947;28;29364;-74
2023/03/13 01:10:18;;;;;;;33.40;4.88;;;;;;;-146.25;100.00;52481.75;2080741;28;20163;-73
2023/03/13 01:11:41;;;;;;;30.50;5.05;;;;;;;-146.25;100.00;52453.34;2088895;28;24959;-74
2023/03/13 01:12:43;;;;;;;31.85;5.03;;;;;;;-146.25;100.00;52514.19;2096843;28;20041;-75
2023/03/13 01:13:45;;;;;;;34.20;6.05;;;;;;;-146.25;100.00;52473.63;2097239;28;27685;-73
2023/03/13 01:14:50;;;;;;;31.17;5.13;;;;;;;-146.25;100.00;52514.19;2096278;28;30786;-73
2023/03/13 01:15:51;;;;;;;33.08;5.85;;;;;;;-146.25;100.00;52483.78;2088002;28;26722;-73
2023/03/13 01:16:53;;;;;;;30.50;5.45;;;;;;;-146.25;100.00;52489.84;2089011;28;20041;-75
2023/03/13 01:17:55;;;;;;;33.40;5.47;;;;;;;-146.25;100.00;52471.59;2097125;28;31681;-72
2023/03/13 01:19:07;;;;;;;34.72;4.93;;;;;;;-146.25;100.00;52530.41;2088336;28;23342;-73
2023/03/13 01:20:10;;;;;;;37.72;5.68;;;;;;;-146.25;100.00;52467.56;2089516;28;20046;-72
2023/03/13 01:21:14;;;;;;;39.72;5.45;;;;;;;-146.25;100.00;52518.25;2096810;28;27425;-72
2023/03/13 01:22:15;;;;;;;36.05;5.30;;;;;;;-146.25;100.00;52471.59;2088090;28;20911;-72
2023/03/13 01:23:17;;;;;;;34.60;5.18;;;;;;;-146.25;100.00;52483.78;2088074;28;30943;-72
2023/03/13 01:24:23;;;;;;;37.20;5.55;;;;;;;-146.25;100.00;52506.06;2088073;28;20042;-74
2023/03/13 01:25:25;;;;;;;29.02;5.03;;;;;;;-146.25;100.00;52510.13;2080757;28;20156;-72
2023/03/13 01:26:27;;;;;;;43.83;5.70;;;;;;;-146.25;100.00;52520.28;2088283;28;31130;-73
2023/03/13 01:27:30;;;;;;;30.48;5.03;;;;;;;-146.25;100.00;52518.25;2097433;28;24419;-72
2023/03/13 01:28:32;;;;;;;32.90;4.85;;;;;;;-146.25;100.00;52506.06;2088185;28;20081;-72
2023/03/13 01:29:33;;;;;;;33.90;5.03;;;;;;;-146.25;100.00;52520.28;2088703;28;20077;-74
2023/03/13 01:30:35;;;;;;;34.92;5.25;;;;;;;-146.25;100.00;52532.44;2097440;28;20071;-72
2023/03/13 01:31:39;;;;;;;44.05;5.63;;;;;;;-146.25;100.00;52461.47;2097210;28;30721;-73
2023/03/13 01:32:41;;;;;;;33.00;5.45;;;;;;;-146.25;100.00;52481.75;2097169;28;20852;-72
2023/03/13 01:33:45;;;;;;;38.28;5.38;;;;;;;-146.25;100.00;52477.69;2097055;28;29465;-72
2023/03/13 01:34:52;;;;;;;35.33;4.63;;;;;;;-146.25;100.00;52485.81;2097255;28;20254;-74
2023/03/13 01:36:01;;;;;;;37.92;5.03;;;;;;;-146.25;100.00;52481.75;2097160;28;26146;-74
2023/03/13 01:37:03;;;;;;;32.70;5.32;;;;;;;-146.25;100.00;52479.72;2096001;28;20045;-72
2023/03/13 01:38:05;;;;;;;26.90;5.15;;;;;;;-146.25;100.00;52469.56;2088565;28;20087;-72
2023/03/13 01:39:07;;;;;;;39.63;5.13;;;;;;;-146.25;100.00;52510.13;2079678;28;20042;-72
2023/03/13 01:40:11;;;;;;;39.42;5.28;;;;;;;-146.25;100.00;52489.84;2080347;28;20062;-72
2023/03/13 01:41:13;;;;;;;32.05;5.38;;;;;;;-146.25;100.00;52497.97;2088192;28;23104;-72
2023/03/13 01:42:16;;;;;;;31.15;4.20;;;;;;;-146.25;100.00;52461.47;2087944;28;20034;-72
2023/03/13 01:43:34;;;;;;;37.00;5.10;;;;;;;-146.25;100.00;52477.69;2087550;28;24877;-73
2023/03/13 01:44:56;;;;;;;33.55;5.07;;;;;;;-146.25;100.00;52481.75;2097571;28;20037;-72
2023/03/13 01:46:17;;;;;;;37.17;5.03;;;;;;;-146.25;100.00;52500.00;2088353;28;20033;-73
2023/03/13 01:47:28;;;;;;;31.13;5.20;;;;;;;-146.25;100.00;52518.25;2091175;28;20045;-73
2023/03/13 01:49:32;;;;;;;30.85;4.78;;;;;;;-146.25;100.00;52502.03;2088235;28;20041;-73
2023/03/13 01:50:44;;;;;;;31.65;5.07;;;;;;;-146.25;100.00;52481.75;2087684;28;21019;-72
2023/03/13 01:52:00;;;;;;;33.22;4.55;;;;;;;-146.25;100.00;52475.66;2081157;28;20098;-73
2023/03/13 01:53:02;;;;;;;27.40;4.35;;;;;;;-146.25;100.00;52504.03;2080940;28;20927;-72
2023/03/13 01:54:17;;;;;;;37.92;5.28;;;;;;;-146.25;100.00;52453.34;2080152;28;20049;-73
2023/03/13 01:55:19;;;;;;;35.83;4.63;;;;;;;-146.25;100.00;52502.03;2081767;28;20046;-73
2023/03/13 01:56:48;;;;;;;28.75;4.85;;;;;;;-146.25;100.00;52504.03;2080446;28;20042;-73
2023/03/13 01:57:53;;;;;;;27.40;4.13;;;;;;;-146.25;100.00;52506.06;2083289;28;20907;-73
2023/03/13 01:58:59;;;;;;;34.15;4.38;;;;;;;-146.25;100.00;52481.75;2080524;28;20046;-73
2023/03/13 02:00:11;;;;;;;34.10;4.82;;;;;;;-146.25;100.00;52522.28;2080146;28;20073;-73
2023/03/13 02:01:17;;;;;;;34.50;4.68;;;;;;;-146.25;100.00;52493.91;2089929;28;20045;-73
2023/03/13 02:02:21;;;;;;;28.42;4.15;;;;;;;-146.25;100.00;52510.13;2087335;28;29150;-72
2023/03/13 02:03:27;;;;;;;34.17;4.78;;;;;;;-146.25;100.00;52510.13;2080495;28;20189;-72
2023/03/13 02:04:36;;;;;;;29.38;4.15;;;;;;;-146.25;100.00;52508.09;2088015;28;34179;-73
2023/03/13 02:05:41;;;;;;;34.88;4.32;;;;;;;-146.25;100.00;52520.28;2087709;28;28111;-72
2023/03/13 02:06:46;;;;;;;29.33;3.80;;;;;;;-146.25;100.00;52477.69;2080911;28;20843;-72
2023/03/13 02:08:04;;;;;;;30.77;4.13;;;;;;;-146.25;100.00;52479.72;2088522;28;22945;-72
2023/03/13 02:09:13;;;;;;;33.63;4.68;;;;;;;-146.25;100.00;52502.03;2096899;28;31381;-73
2023/03/13 02:10:17;;;;;;;34.17;4.50;;;;;;;-146.25;100.00;52506.06;2088076;28;20899;-72
2023/03/13 02:11:47;;;;;;;33.90;4.75;;;;;;;-146.25;100.00;52473.63;2087808;28;30363;-73
2023/03/13 02:12:50;;;;;;;34.42;4.80;;;;;;;-146.25;100.00;52500.00;2084355;28;21214;-73
2023/03/13 02:13:53;;;;;;;31.50;4.60;;;;;;;-146.25;100.00;52469.56;2072984;28;32664;-72
2023/03/13 02:14:58;;;;;;;26.05;3.95;;;;;;;-146.25;100.00;52518.25;2072284;28;20173;-72
2023/03/13 02:16:00;;;;;;;26.35;4.60;;;;;;;-146.25;100.00;52506.06;2072090;28;20050;-73
2023/03/13 02:17:04;;;;;;;30.58;4.28;;;;;;;-146.25;100.00;52522.28;2072242;28;20038;-73
2023/03/13 02:18:05;;;;;;;30.73;4.68;;;;;;;-146.25;100.00;52522.28;2080876;28;25657;-73
2023/03/13 02:19:44;;;;;;;25.77;3.97;;;;;;;-146.25;100.00;52485.81;2099244;28;20533;-72
2023/03/13 02:20:49;;;;;;;35.63;4.70;;;;;;;-146.25;100.00;52455.38;2063176;28;20043;-73
2023/03/13 02:22:12;;;;;;;34.00;4.88;;;;;;;-146.25;100.00;52493.91;2083379;28;23401;-72
2023/03/13 02:23:43;;;;;;;25.52;3.67;;;;;;;-146.25;100.00;52500.00;2090782;28;20052;-73
2023/03/13 02:25:19;;;;;;;27.40;4.30;;;;;;;-146.25;100.00;52449.31;2100382;28;20217;-73
2023/03/13 02:26:20;;;;;;;29.88;3.75;;;;;;;-146.25;100.00;52463.50;2091736;28;20053;-73
2023/03/13 02:27:23;;;;;;;31.92;4.10;;;;;;;-146.25;100.00;52481.75;2082530;28;20049;-73
2023/03/13 02:28:32;;;;;;;37.85;4.82;;;;;;;-146.25;100.00;52483.78;2088116;28;20049;-73
2023/03/13 02:29:36;;;;;;;28.63;4.03;;;;;;;-146.25;100.00;52522.28;2089434;28;20319;-73
2023/03/13 02:30:40;;;;;;;27.83;4.05;;;;;;;-146.25;100.00;52508.09;2096246;28;20044;-72
2023/03/13 02:31:48;;;;;;;32.83;4.50;;;;;;;-146.25;100.00;52473.63;2095509;28;20049;-73
2023/03/13 02:32:54;;;;;;;35.20;4.80;;;;;;;-146.25;100.00;52473.63;2090713;28;20030;-73
2023/03/13 02:34:00;;;;;;;27.55;5.03;;;;;;;-146.25;100.00;52473.63;2096166;28;24091;-73
2023/03/13 02:35:09;;;;;;;32.60;5.00;;;;;;;-146.25;100.00;52485.81;2080373;28;20157;-72
2023/03/13 02:36:14;;;;;;;33.25;4.50;;;;;;;-146.25;100.00;52526.34;2090532;28;20123;-72
2023/03/13 02:37:17;;;;;;;37.50;5.22;;;;;;;-146.25;100.00;52479.72;2096460;28;20048;-72
2023/03/13 02:38:29;;;;;;;30.67;4.43;;;;;;;-146.25;100.00;52518.25;2088697;28;20961;-72
2023/03/13 02:39:32;;;;;;;30.90;4.47;;;;;;;-146.25;100.00;52508.09;2096002;28;28873;-72
2023/03/13 02:40:40;;;;;;;32.70;4.93;;;;;;;-146.25;100.00;52518.25;2080873;28;20068;-72
2023/03/13 02:41:45;;;;;;;31.30;4.55;;;;;;;-146.25;100.00;52504.03;2073798;28;20057;-72
2023/03/13 02:42:49;;;;;;;38.03;4.68;;;;;;;-146.25;100.00;52495.94;2089384;28;20084;-72
2023/03/13 02:43:51;;;;;;;34.08;5.35;;;;;;;-146.25;100.00;52491.88;2104279;28;20954;-73
2023/03/13 02:44:53;;;;;;;31.05;4.50;;;;;;;-146.25;100.00;52487.81;2096521;28;20037;-72
2023/03/13 02:46:17;;;;;;;34.05;4.85;;;;;;;-146.25;100.00;52497.97;2104891;28;20041;-72
2023/03/13 02:47:24;;;;;;;34.08;4.63;;;;;;;-146.25;100.00;52516.22;2095640;28;20056;-73
2023/03/13 02:48:37;;;;;;;32.75;5.20;;;;;;;-146.25;100.00;52500.00;2096892;28;20051;-73
2023/03/13 02:49:39;;;;;;;32.33;4.43;;;;;;;-146.25;100.00;52465.53;2104766;28;20036;-73
2023/03/13 02:50:41;;;;;;;27.92;4.43;;;;;;;-146.25;100.00;52475.66;2095737;28;26744;-73
2023/03/13 02:51:45;;;;;;;31.27;4.72;;;;;;;-146.25;100.00;52495.94;2095856;28;22206;-73
2023/03/13 02:53:06;;;;;;;28.40;4.75;;;;;;;-146.25;100.00;52483.78;2095753;28;20088;-73
2023/03/13 02:54:17;;;;;;;26.52;4.47;;;;;;;-146.25;100.00;52469.56;2089519;28;20041;-72
2023/03/13 02:55:29;;;;;;;30.55;4.80;;;;;;;-146.25;100.00;52542.56;2095871;28;20048;-73
2023/03/13 02:56:36;;;;;;;31.42;4.53;;;;;;;-146.25;100.00;52483.78;2097672;28;20116;-73
2023/03/13 02:57:39;;;;;;;29.80;4.90;;;;;;;-146.25;100.00;52473.63;2096137;28;20130;-73
2023/03/13 02:58:42;;;;;;;24.80;5.57;;;;;;;-146.25;100.00;52510.13;2080411;28;20058;-73
2023/03/13 02:59:52;;;;;;;38.97;5.07;;;;;;;-146.25;100.00;52497.97;2090652;28;20362;-73
2023/03/13 03:00:54;;;;;;;35.25;5.00;;;;;;;-146.25;100.00;52502.03;2096937;28;29739;-73
2023/03/13 03:01:58;;;;;;;23.92;4.53;;;;;;;-146.25;100.00;52483.78;2096120;28;20041;-72
2023/03/13 03:03:02;;;;;;;34.75;4.45;;;;;;;-146.25;100.00;52502.03;2079610;28;20168;-73
2023/03/13 03:04:04;;;;;;;29.17;4.47;;;;;;;-146.25;100.00;52473.63;2088366;28;20041;-72
2023/03/13 03:05:06;;;;;;;29.90;4.70;;;;;;;-146.25;100.00;52487.81;2086857;28;37380;-73
2023/03/13 03:06:08;;;;;;;35.65;4.95;;;;;;;-146.25;100.00;52485.81;2087959;28;20940;-72
2023/03/13 03:07:13;;;;;;;24.55;4.35;;;;;;;-146.25;100.00;52477.69;2087744;28;20046;-72
2023/03/13 03:08:17;;;;;;;33.65;5.57;;;;;;;-146.25;100.00;52475.66;2080191;28;20050;-72
2023/03/13 03:09:20;;;;;;;30.05;4.63;;;;;;;-146.25;100.00;52475.66;2079738;28;20042;-73
2023/03/13 03:10:24;;;;;;;35.72;4.95;;;;;;;-146.25;100.00;52534.47;2079812;28;20926;-72
2023/03/13 03:11:26;;;;;;;34.67;5.20;;;;;;;-146.25;100.00;52489.84;2079358;28;20903;-72
2023/03/13 03:12:34;;;;;;;32.15;4.90;;;;;;;-146.25;100.00;52497.97;2079861;28;20049;-72
2023/03/13 03:13:35;;;;;;;27.83;5.28;;;;;;;-146.25;100.00;52493.91;2088088;28;20041;-73
2023/03/13 03:14:38;;;;;;;32.33;4.65;;;;;;;-146.25;100.00;52489.84;2087614;28;20120;-73
2023/03/13 03:15:40;;;;;;;30.27;4.53;;;;;;;-146.25;100.00;52477.69;2087933;28;20111;-73
2023/03/13 03:16:42;;;;;;;31.08;4.75;;;;;;;-146.25;100.00;52522.28;2087504;28;20041;-75
2023/03/13 03:17:46;;;;;;;24.25;4.78;;;;;;;-146.25;100.00;52497.97;2087611;28;20446;-73
2023/03/13 03:18:48;;;;;;;25.27;4.70;;;;;;;-146.25;100.00;52481.75;2087822;28;20811;-73
2023/03/13 03:19:50;;;;;;;33.00;5.05;;;;;;;-146.25;100.00;52502.03;2095953;28;20913;-72
2023/03/13 03:20:54;;;;;;;33.00;5.10;;;;;;;-146.25;100.00;52500.00;2087659;28;20123;-72
2023/03/13 03:21:56;;;;;;;30.55;4.57;;;;;;;-146.25;100.00;52542.56;2087942;28;20112;-71
2023/03/13 03:23:00;;;;;;;35.03;6.30;;;;;;;-146.25;100.00;52495.94;2096627;28;20045;-72
2023/03/13 03:24:02;;;;;;;30.50;4.90;;;;;;;-146.25;100.00;52479.72;2096523;28;23785;-72
2023/03/13 03:25:06;;;;;;;34.78;5.28;;;;;;;-146.25;100.00;52487.81;2087536;28;20041;-72
2023/03/13 03:26:08;;;;;;;40.22;5.95;;;;;;;-146.25;100.00;52497.97;2087310;28;32622;-70
2023/03/13 03:27:10;;;;;;;35.22;5.22;;;;;;;-146.25;100.00;52469.56;2095973;28;20176;-71
2023/03/13 03:28:18;;;;;;;36.85;5.07;;;;;;;-146.25;100.00;52514.19;2087714;28;20037;-72
2023/03/13 03:29:20;;;;;;;35.78;6.10;;;;;;;-146.25;100.00;52502.03;2087999;28;20215;-71
2023/03/13 03:30:25;;;;;;;34.97;5.80;;;;;;;-146.25;100.00;52489.84;2087874;28;20053;-73
2023/03/13 03:31:26;;;;;;;38.28;5.63;;;;;;;-146.25;100.00;52497.97;2087727;28;20056;-73
2023/03/13 03:32:30;;;;;;;33.38;5.72;;;;;;;-146.25;100.00;52526.34;2095727;28;20898;-73
2023/03/13 03:33:33;;;;;;;37.15;5.75;;;;;;;-146.25;100.00;52512.16;2087228;28;20875;-73
2023/03/13 03:34:39;;;;;;;30.55;6.10;;;;;;;-146.25;100.00;52473.63;2095904;28;20834;-74
2023/03/13 03:35:41;;;;;;;37.15;6.38;;;;;;;-146.25;100.00;52461.47;2095377;28;20922;-74
2023/03/13 03:36:43;;;;;;;30.52;5.88;;;;;;;-146.25;100.00;52487.81;2095621;28;20073;-73
2023/03/13 03:37:45;;;;;;;38.75;6.40;;;;;;;-146.25;100.00;52475.66;2104173;28;23764;-73
2023/03/13 03:38:48;;;;;;;32.00;5.85;;;;;;;-146.25;100.00;52512.16;2087684;28;20048;-74
2023/03/13 03:39:52;;;;;;;35.80;6.82;;;;;;;-146.25;100.00;52491.88;2087890;28;20045;-74
2023/03/13 03:40:54;;;;;;;39.42;6.75;;;;;;;-146.25;100.00;52516.22;2087543;28;21941;-74
2023/03/13 03:41:56;;;;;;;31.48;7.05;;;;;;;-146.25;100.00;52502.03;2087305;28;20046;-74
2023/03/13 03:42:58;;;;;;;37.47;7.28;;;;;;;-146.25;100.00;52479.72;2079287;28;20168;-73
2023/03/13 03:44:03;;;;;;;39.38;7.80;;;;;;;-146.25;100.00;52485.81;2079413;28;21052;-73
2023/03/13 03:45:15;;;;;;;43.15;8.13;;;;;;;-146.25;100.00;52500.00;2089506;28;20123;-72
2023/03/13 03:46:17;;;;;;;36.67;8.30;;;;;;;-146.25;100.00;52495.94;2087216;28;20069;-72
2023/03/13 03:47:19;;;;;;;32.17;8.63;;;;;;;-146.25;100.00;52502.03;2087883;28;20021;-72
2023/03/13 03:48:22;;;;;;;32.00;9.02;;;;;;;-146.25;100.00;52491.88;2087446;28;20093;-71
2023/03/13 03:49:23;;;;;;;47.65;9.77;;;;;;;-146.25;100.00;52520.28;2084164;28;20100;-71
2023/03/13 03:50:26;;;;;;;37.45;9.57;;;;;;;-146.25;100.00;52504.03;2095269;28;25812;-71
2023/03/13 03:51:33;;;;;;;37.15;9.00;;;;;;;-146.25;100.00;52497.97;2087445;28;20049;-72
2023/03/13 03:52:37;;;;;;;34.08;10.25;;;;;;;-146.25;100.00;52506.06;2087519;28;20267;-72
2023/03/13 03:53:39;;;;;;;40.17;10.27;;;;;;;-146.25;100.00;52489.84;2087487;28;22617;-70
2023/03/13 03:54:41;;;;;;;41.17;10.32;;;;;;;-146.25;100.00;52481.75;2087804;28;20046;-70
2023/03/13 03:55:44;;;;;;;34.90;10.40;;;;;;;-146.25;100.00;52485.81;2079129;28;20054;-70
2023/03/13 03:56:45;;;;;;;30.58;10.60;;;;;;;-146.25;100.00;52493.91;2087220;28;28473;-72
2023/03/13 03:57:47;;;;;;;27.75;10.30;;;;;;;-146.25;100.00;52506.06;2087376;28;20045;-71
2023/03/13 03:58:56;;;;;;;34.22;11.05;;;;;;;-146.25;100.00;52504.03;2088516;28;20828;-71
2023/03/13 04:00:14;;;;;;;30.02;11.20;;;;;;;-146.25;100.00;52481.75;2087587;28;20960;-72
2023/03/13 04:01:21;;;;;;;30.58;11.15;;;;;;;-146.25;100.00;52502.03;2087470;28;20097;-71
2023/03/13 04:02:25;;;;;;;38.60;12.07;;;;;;;-146.25;100.00;52487.81;2087126;28;20902;-71
2023/03/13 04:03:27;;;;;;;37.13;11.63;;;;;;;-146.25;100.00;52495.94;2095689;28;20102;-70
2023/03/13 04:04:29;;;;;;;38.17;12.75;;;;;;;-146.25;100.00;52497.97;2087339;28;20050;-69
2023/03/13 04:05:38;;;;;;;40.63;12.98;;;;;;;-146.25;100.00;52502.03;2087501;28;20120;-72
2023/03/13 04:06:39;;;;;;;34.50;12.68;;;;;;;-146.25;100.00;52506.06;2089142;28;21481;-72
2023/03/13 04:07:42;;;;;;;35.50;12.82;;;;;;;-146.25;100.00;52510.13;2089021;28;20045;-70
2023/03/13 04:08:44;;;;;;;35.15;13.05;;;;;;;-146.25;100.00;52475.66;2080689;28;20097;-73
2023/03/13 04:09:49;;;;;;;34.95;12.77;;;;;;;-146.25;100.00;52506.06;2080926;28;20164;-73
2023/03/13 04:11:00;;;;;;;33.53;12.48;;;;;;;-146.25;100.00;52487.81;2090128;28;20152;-72
2023/03/13 04:12:05;;;;;;;33.67;12.93;;;;;;;-146.25;100.00;52483.78;2089078;28;20057;-72
2023/03/13 04:13:11;;;;;;;34.03;13.05;;;;;;;-146.25;100.00;52500.00;2089320;28;20045;-72
2023/03/13 04:14:12;;;;;;;37.67;14.90;;;;;;;-146.25;100.00;52514.19;2097440;28;20065;-72
2023/03/13 04:15:14;;;;;;;28.40;13.75;;;;;;;-146.25;100.00;52514.19;2088756;28;20116;-73
2023/03/13 04:16:16;;;;;;;30.58;13.77;;;;;;;-146.25;100.00;52500.00;2088986;28;20909;-73
2023/03/13 04:17:19;;;;;;;34.35;12.80;;;;;;;-146.25;100.00;52518.25;2096956;28;20164;-72
2023/03/13 04:18:21;;;;;;;37.40;13.85;;;;;;;-146.25;100.00;52522.28;2097182;28;20033;-72
2023/03/13 04:19:23;;;;;;;32.13;13.65;;;;;;;-146.25;100.00;52506.06;2088271;28;28223;-72
2023/03/13 04:20:25;;;;;;;29.02;13.73;;;;;;;-146.25;100.00;52528.38;2080180;28;20081;-72
2023/03/13 04:21:27;;;;;;;33.28;14.27;;;;;;;-146.25;100.00;52493.91;2072216;28;20050;-72
2023/03/13 04:22:39;;;;;;;31.17;13.82;;;;;;;-146.25;100.00;52534.47;2083062;28;20107;-72
2023/03/13 04:23:41;;;;;;;33.55;13.25;;;;;;;-146.25;100.00;52475.66;2088658;28;20918;-72
2023/03/13 04:24:43;;;;;;;28.85;13.45;;;;;;;-146.25;100.00;52455.38;2080702;28;20109;-72
2023/03/13 04:25:47;;;;;;;27.85;14.07;;;;;;;-146.25;100.00;52475.66;2088589;28;20057;-72
2023/03/13 04:26:49;;;;;;;32.65;13.30;;;;;;;-146.25;100.00;52526.34;2097110;28;26105;-72
2023/03/13 04:27:51;;;;;;;33.63;13.43;;;;;;;-146.25;100.00;52477.69;2088605;28;20041;-72
2023/03/13 04:28:55;;;;;;;31.83;14.05;;;;;;;-146.25;100.00;52514.19;2081085;28;20046;-72
2023/03/13 04:30:16;;;;;;;27.90;13.20;;;;;;;-146.25;100.00;52506.06;2091115;28;20049;-72
2023/03/13 04:31:34;;;;;;;29.50;13.40;;;;;;;-146.25;100.00;52530.41;2096714;28;20080;-72
2023/03/13 04:32:54;;;;;;;;;;;;;;;-146.25;100.00;52502.03;2097773;28;20045;-72
2023/03/13 04:34:04;;;;;;;22.98;9.05;;;;;;;-146.25;100.00;52546.63;2088433;28;20070;-72
2023/03/13 04:35:27;;;;;;;26.67;11.52;;;;;;;-146.25;100.00;52493.91;2083264;28;20052;-72
2023/03/13 04:36:47;;;;;;;33.88;11.93;;;;;;;-146.25;100.00;52518.25;2091884;28;20927;-72
2023/03/13 04:38:12;;;;;;;25.75;11.75;;;;;;;-146.25;100.00;52506.06;2097009;28;20373;-72
2023/03/13 04:39:24;;;;;;;21.60;11.32;;;;;;;-146.25;100.00;52491.88;2097180;28;20994;-73
2023/03/13 04:40:32;;;;;;;23.25;11.48;;;;;;;-146.25;100.00;52514.19;2088657;28;20998;-72
2023/03/13 04:41:44;;;;;;;26.95;11.32;;;;;;;-146.25;100.00;52483.78;2082745;28;20101;-72
2023/03/13 04:43:05;;;;;;;22.20;10.75;;;;;;;-146.25;100.00;52522.28;2090927;28;20780;-72
2023/03/13 04:44:14;;;;;;;24.63;11.27;;;;;;;-146.25;100.00;52473.63;2097567;28;20041;-72
2023/03/13 04:45:18;;;;;;;22.98;10.18;;;;;;;-146.25;100.00;52489.84;2097761;28;20878;-72
2023/03/13 04:46:32;;;;;;;24.83;10.93;;;;;;;-146.25;100.00;52479.72;2098040;28;20091;-72
2023/03/13 04:47:48;;;;;;;22.90;10.25;;;;;;;-146.25;100.00;52489.84;2097781;28;20949;-72
2023/03/13 04:49:08;;;;;;;19.13;10.30;;;;;;;-146.25;100.00;52512.16;2099745;28;20036;-72
2023/03/13 04:50:12;;;;;;;24.13;10.10;;;;;;;-146.25;100.00;52493.91;2105226;28;20045;-72
2023/03/13 04:51:19;;;;;;;19.52;10.60;;;;;;;-146.25;100.00;52469.56;2096775;28;20128;-72
2023/03/13 04:52:26;;;;;;;22.33;9.73;;;;;;;-146.25;100.00;52516.22;2096879;28;20076;-72
2023/03/13 04:53:46;;;;;;;20.92;10.15;;;;;;;-146.25;100.00;52512.16;2098987;28;20041;-72
2023/03/13 04:55:07;;;;;;;20.38;9.75;;;;;;;-146.25;100.00;52514.19;2104986;28;20049;-72
2023/03/13 04:56:25;;;;;;;17.02;9.18;;;;;;;-146.25;100.00;52510.13;2096781;28;20072;-72